Météo aviation pour un terrain ou une ville
Choisir un ou une

Vous pouvez entrer RAPIDEMENT les premières lettres pour sélectionner

Aéroport choisi : LFCK - CASTRES - MAZAMET
Visibilité




Soleil : Lever à 06:13 Coucher à 21:31
Durée du jour : 15h 18 (0 minute(s))
Date et heure locale 20/06/2021 00:16
Il fait nuit
Distance Terre - Lune : 368733 kms

Phase actuelle: Gibeuse montante
Température
Pression
Humidité
Force du vent
Direction du vent
Temps présent
Ciel Clair

Ensoleillement : 100 %
Heure d'observation : 2021/06/20 00:00. Soit il y a 0 H 16 mn
Décodage METAR, TAF et désign par Philippe Guiraud
METAR : 2021/06/19 22:00 LFCK 192200Z AUTO 12014KT CAVOK 23/18 Q1013
Prévisions (décodage des TAF)
Pas de prévisions (TAF) pour cette station
Historique pour les derniéres 24 heures
Carte satellite actuelle
Satellite Image